createdAt,value
2023-01-21T00:01:09.611Z,21.26
2023-01-21T00:04:13.762Z,21.26
2023-01-21T00:07:18.119Z,21.24
2023-01-21T00:10:21.148Z,21.23
2023-01-21T00:13:24.350Z,21.18
2023-01-21T00:16:27.398Z,21.21
2023-01-21T00:19:30.542Z,21.22
2023-01-21T00:22:35.018Z,21.22
2023-01-21T00:25:38.027Z,21.19
2023-01-21T00:28:46.560Z,21.22
2023-01-21T00:31:52.960Z,21.20
2023-01-21T00:34:58.361Z,21.22
2023-01-21T00:38:02.724Z,21.21
2023-01-21T00:41:15.317Z,21.18
2023-01-21T00:44:19.326Z,21.19
2023-01-21T00:47:24.701Z,21.19
2023-01-21T00:50:27.818Z,21.17
2023-01-21T00:53:39.436Z,21.15
2023-01-21T00:56:42.455Z,21.17
2023-01-21T00:59:45.679Z,21.16
2023-01-21T01:02:50.811Z,21.08
2023-01-21T01:05:53.765Z,21.15
2023-01-21T01:08:58.830Z,21.12
2023-01-21T01:12:01.863Z,21.14
2023-01-21T01:15:05.309Z,21.15
2023-01-21T01:18:10.492Z,21.14
2023-01-21T01:21:15.323Z,21.07
2023-01-21T01:24:19.716Z,21.13
2023-01-21T01:27:22.686Z,21.08
2023-01-21T01:30:25.651Z,21.13
2023-01-21T01:33:30.591Z,21.08
2023-01-21T01:36:33.668Z,21.10
2023-01-21T01:39:38.089Z,21.12
2023-01-21T01:42:41.190Z,21.05
2023-01-21T01:45:48.631Z,21.09
2023-01-21T01:48:56.491Z,20.92
2023-01-21T01:52:04.568Z,21.08
2023-01-21T01:55:11.868Z,21.02
2023-01-21T01:58:18.171Z,21.07
2023-01-21T02:01:21.287Z,21.09
2023-01-21T02:04:31.334Z,21.07
2023-01-21T02:07:39.704Z,21.00
2023-01-21T02:10:44.205Z,21.07
2023-01-21T02:13:53.719Z,21.04
2023-01-21T02:17:09.433Z,21.06
2023-01-21T02:20:36.125Z,21.05
2023-01-21T02:23:59.480Z,21.05
2023-01-21T02:27:30.676Z,21.06
2023-01-21T02:30:54.416Z,21.05
2023-01-21T02:34:20.476Z,21.05
2023-01-21T02:37:31.844Z,21.05
2023-01-21T02:40:40.790Z,21.03
2023-01-21T02:43:51.523Z,21.03
2023-01-21T02:46:59.998Z,21.02
2023-01-21T02:50:07.674Z,21.02
2023-01-21T02:53:25.494Z,21.00
2023-01-21T02:56:29.122Z,20.97
2023-01-21T02:59:32.587Z,21.00
2023-01-21T03:03:05.158Z,21.00
2023-01-21T03:06:30.413Z,20.98
2023-01-21T03:09:37.474Z,20.98
2023-01-21T03:12:45.805Z,21.00
2023-01-21T03:16:16.350Z,20.97
2023-01-21T03:19:25.331Z,20.93
2023-01-21T03:22:34.898Z,20.98
2023-01-21T03:25:39.706Z,20.97
2023-01-21T03:28:47.127Z,20.97
2023-01-21T03:31:55.056Z,20.97
2023-01-21T03:34:59.004Z,20.97
2023-01-21T03:38:10.300Z,20.96
2023-01-21T03:41:16.659Z,20.90
2023-01-21T03:44:19.761Z,20.92
2023-01-21T03:47:31.465Z,20.93
2023-01-21T03:56:47.794Z,20.92
2023-01-21T03:59:50.828Z,20.95
2023-01-21T04:02:53.802Z,20.95
2023-01-21T04:05:56.764Z,20.93
2023-01-21T04:09:01.216Z,20.92
2023-01-21T04:12:04.232Z,20.93
2023-01-21T04:15:08.597Z,20.93
2023-01-21T04:18:13.701Z,20.93
2023-01-21T04:21:16.843Z,20.91
2023-01-21T04:24:21.200Z,20.86
2023-01-21T04:27:24.261Z,20.91
2023-01-21T04:30:27.234Z,20.85
2023-01-21T04:33:30.792Z,20.90
2023-01-21T04:36:33.774Z,20.92
2023-01-21T04:39:38.133Z,20.89
2023-01-21T04:42:43.282Z,20.89
2023-01-21T04:45:46.361Z,20.90
2023-01-21T04:48:49.473Z,20.90
2023-01-21T04:51:52.547Z,20.79
2023-01-21T04:54:56.910Z,20.90
2023-01-21T04:57:59.863Z,20.90
2023-01-21T05:01:04.123Z,20.86
2023-01-21T05:04:07.129Z,20.81
2023-01-21T05:07:11.747Z,20.89
2023-01-21T05:10:19.026Z,20.89
2023-01-21T05:13:22.255Z,20.88
2023-01-21T05:19:42.025Z,20.89
2023-01-21T05:22:47.513Z,20.84
2023-01-21T05:25:51.917Z,20.79
2023-01-21T05:28:54.902Z,20.88
2023-01-21T05:31:57.938Z,20.88
2023-01-21T05:35:02.982Z,20.88
2023-01-21T05:38:06.035Z,20.88
2023-01-21T05:41:12.565Z,20.87
2023-01-21T05:44:17.530Z,20.87
2023-01-21T05:47:20.792Z,20.85
2023-01-21T05:50:26.396Z,20.88
2023-01-21T05:53:29.485Z,20.89
2023-01-21T05:56:33.849Z,20.87
2023-01-21T05:59:36.948Z,20.87
2023-01-21T06:02:40.045Z,20.86
2023-01-21T06:05:45.477Z,20.85
2023-01-21T06:08:48.467Z,20.86
2023-01-21T06:11:53.115Z,20.86
2023-01-21T06:14:56.080Z,20.88
2023-01-21T06:17:59.719Z,20.89
2023-01-21T06:21:03.226Z,20.87
2023-01-21T06:24:07.932Z,20.86
2023-01-21T06:27:12.591Z,20.87
2023-01-21T06:30:16.131Z,20.84
2023-01-21T06:33:19.380Z,20.88
2023-01-21T06:36:25.096Z,20.90
2023-01-21T06:39:28.068Z,20.88
2023-01-21T06:42:32.470Z,20.91
2023-01-21T06:45:35.485Z,20.91
2023-01-21T06:48:40.338Z,20.88
2023-01-21T06:51:43.418Z,20.89
2023-01-21T06:54:46.706Z,20.90
2023-01-21T06:57:51.162Z,20.85
2023-01-21T07:00:56.924Z,20.92
2023-01-21T07:04:01.457Z,20.92
2023-01-21T07:07:04.644Z,20.92
2023-01-21T07:10:09.210Z,20.92
2023-01-21T07:16:21.979Z,20.96
2023-01-21T07:19:25.094Z,20.85
2023-01-21T07:22:28.090Z,20.97
2023-01-21T07:25:32.469Z,20.97
2023-01-21T07:28:36.909Z,20.99
2023-01-21T07:31:44.458Z,21.00
2023-01-21T07:34:47.746Z,20.99
2023-01-21T07:37:52.819Z,20.98
2023-01-21T07:40:55.829Z,20.92
2023-01-21T07:44:00.288Z,21.04
2023-01-21T07:47:03.411Z,21.11
2023-01-21T07:50:08.815Z,21.28
2023-01-21T07:53:14.292Z,21.21
2023-01-21T07:56:18.251Z,20.93
2023-01-21T07:59:23.286Z,20.92
2023-01-21T08:02:26.696Z,20.92
2023-01-21T08:05:31.623Z,21.00
2023-01-21T08:08:37.043Z,21.10
2023-01-21T08:11:40.072Z,20.44
2023-01-21T08:14:44.430Z,20.32
2023-01-21T08:17:48.910Z,19.95
2023-01-21T08:20:55.375Z,20.65
2023-01-21T08:23:58.378Z,20.99
2023-01-21T08:27:04.282Z,21.11
2023-01-21T08:30:10.252Z,21.17
2023-01-21T08:33:14.268Z,21.25
2023-01-21T08:36:17.285Z,21.25
2023-01-21T08:39:20.504Z,21.19
2023-01-21T08:42:23.489Z,21.11
2023-01-21T08:45:27.993Z,21.15
2023-01-21T08:48:31.403Z,21.20
2023-01-21T08:51:34.463Z,21.18
2023-01-21T08:54:37.482Z,21.17
2023-01-21T08:57:40.555Z,21.28
2023-01-21T09:00:45.002Z,21.35
2023-01-21T09:03:50.355Z,21.31
2023-01-21T09:06:54.607Z,21.30
2023-01-21T09:09:57.644Z,21.30
2023-01-21T09:13:04.148Z,21.32
2023-01-21T09:16:12.551Z,21.24
2023-01-21T09:19:15.634Z,21.29
2023-01-21T09:22:19.074Z,21.21
2023-01-21T09:25:23.332Z,21.13
2023-01-21T09:28:28.768Z,21.05
2023-01-21T09:31:33.177Z,21.06
2023-01-21T09:34:36.233Z,20.98
2023-01-21T09:37:39.297Z,20.86
2023-01-21T09:40:46.386Z,20.75
2023-01-21T09:43:58.945Z,20.41
2023-01-21T09:47:07.372Z,20.30
2023-01-21T09:50:17.523Z,20.20
2023-01-21T09:53:30.644Z,20.23
2023-01-21T09:56:43.050Z,20.37
2023-01-21T10:00:00.239Z,20.36
2023-01-21T10:03:18.722Z,20.34
2023-01-21T10:06:31.404Z,20.29
2023-01-21T10:09:48.885Z,20.55
2023-01-21T10:13:15.568Z,21.01
2023-01-21T10:16:27.235Z,21.33
2023-01-21T10:19:37.161Z,21.57
2023-01-21T10:22:43.644Z,21.72
2023-01-21T10:25:49.296Z,21.75
2023-01-21T10:28:55.487Z,21.74
2023-01-21T10:32:02.600Z,21.68
2023-01-21T10:35:18.794Z,21.70
2023-01-21T10:38:31.334Z,21.77
2023-01-21T10:41:49.563Z,21.79
2023-01-21T10:45:01.084Z,21.77
2023-01-21T10:48:10.488Z,21.63
2023-01-21T10:51:22.652Z,21.64
2023-01-21T10:54:33.166Z,21.84
2023-01-21T10:57:54.927Z,21.96
2023-01-21T11:01:04.648Z,21.96
2023-01-21T11:04:15.149Z,21.99
2023-01-21T11:07:22.551Z,22.03
2023-01-21T11:10:27.841Z,22.01
2023-01-21T11:13:31.102Z,21.99
2023-01-21T11:16:46.531Z,22.04
2023-01-21T11:20:01.741Z,22.11
2023-01-21T11:23:07.953Z,22.14
2023-01-21T11:26:21.547Z,22.07
2023-01-21T11:29:26.354Z,22.08
2023-01-21T11:32:31.819Z,22.02
2023-01-21T11:35:34.791Z,22.05
2023-01-21T11:38:39.221Z,22.01
2023-01-21T11:45:27.962Z,21.90
2023-01-21T11:48:32.091Z,21.86
2023-01-21T11:51:35.798Z,21.88
2023-01-21T11:54:40.942Z,21.88
2023-01-21T11:57:47.206Z,21.86
2023-01-21T12:00:53.083Z,21.79
2023-01-21T12:04:01.113Z,21.74
2023-01-21T12:07:06.683Z,21.77
2023-01-21T12:10:25.525Z,21.75
2023-01-21T12:13:36.508Z,21.66
2023-01-21T12:16:47.348Z,21.39
2023-01-21T12:20:02.479Z,21.69
2023-01-21T12:23:26.068Z,21.61
2023-01-21T12:26:38.475Z,21.50
2023-01-21T12:29:53.638Z,21.45
2023-01-21T12:33:02.784Z,21.42
2023-01-21T12:36:13.089Z,21.38
2023-01-21T12:39:24.373Z,21.38
2023-01-21T12:42:36.735Z,21.35
2023-01-21T12:45:46.276Z,21.33
2023-01-21T12:48:54.581Z,21.32
2023-01-21T12:52:01.149Z,21.15
2023-01-21T12:55:22.116Z,21.32
2023-01-21T12:58:32.277Z,21.48
2023-01-21T13:01:44.254Z,21.52
2023-01-21T13:04:55.821Z,21.56
2023-01-21T13:08:06.448Z,21.57
2023-01-21T13:11:21.143Z,21.59
2023-01-21T13:14:31.391Z,21.65
2023-01-21T13:17:37.461Z,21.68
2023-01-21T13:20:48.609Z,21.57
2023-01-21T13:23:59.729Z,21.57
2023-01-21T13:27:16.457Z,21.49
2023-01-21T13:30:31.627Z,21.43
2023-01-21T13:33:45.553Z,21.39
2023-01-21T13:37:03.409Z,21.33
2023-01-21T13:40:25.972Z,21.29
2023-01-21T13:43:54.363Z,21.22
2023-01-21T13:47:10.565Z,21.33
2023-01-21T13:50:24.390Z,20.72
2023-01-21T13:53:54.975Z,20.91
2023-01-21T13:57:08.913Z,21.07
2023-01-21T15:49:43.751Z,21.24
2023-01-21T15:53:10.826Z,21.31
2023-01-21T15:56:27.165Z,21.21
2023-01-21T15:59:53.740Z,21.10
2023-01-21T16:03:01.677Z,21.11
2023-01-21T16:06:21.046Z,21.26
2023-01-21T16:09:37.443Z,21.30
2023-01-21T16:39:56.890Z,21.40
2023-01-21T16:43:16.950Z,21.49
2023-01-21T16:50:35.650Z,21.53
2023-01-21T16:53:43.738Z,21.63
2023-01-21T16:56:52.179Z,21.64
2023-01-21T17:00:05.152Z,21.66
2023-01-21T17:03:16.421Z,21.64
2023-01-21T17:06:24.639Z,21.64
2023-01-21T17:09:32.883Z,21.62
2023-01-21T17:12:40.409Z,21.63
2023-01-21T17:15:46.352Z,21.63
2023-01-21T17:18:56.983Z,21.62
2023-01-21T17:22:04.771Z,21.68
2023-01-21T17:25:18.151Z,21.73
2023-01-21T17:28:30.448Z,21.74
2023-01-21T17:31:38.163Z,21.74
2023-01-21T17:34:41.695Z,21.75
2023-01-21T17:37:46.774Z,21.75
2023-01-21T17:41:03.624Z,21.76
2023-01-21T17:44:17.935Z,21.77
2023-01-21T17:47:28.880Z,21.70
2023-01-21T17:50:33.221Z,21.78
2023-01-21T17:53:46.324Z,21.77
2023-01-21T17:59:46.523Z,21.82
2023-01-21T18:02:49.570Z,21.84
2023-01-21T18:05:55.705Z,21.85
2023-01-21T18:08:59.155Z,21.85
2023-01-21T18:12:02.250Z,21.82
2023-01-21T18:15:08.069Z,21.83
2023-01-21T18:18:17.517Z,21.80
2023-01-21T18:21:22.130Z,21.73
2023-01-21T18:24:25.762Z,21.74
2023-01-21T18:27:28.939Z,21.81
2023-01-21T18:30:33.908Z,21.81
2023-01-21T18:33:37.013Z,21.78
2023-01-21T18:36:40.619Z,21.77
2023-01-21T18:39:43.928Z,21.79
2023-01-21T18:42:47.395Z,21.69
2023-01-21T18:45:54.146Z,21.78
2023-01-21T18:48:57.612Z,21.76
2023-01-21T18:52:00.620Z,21.77
2023-01-21T18:55:04.096Z,21.82
2023-01-21T18:58:12.886Z,21.76
2023-01-21T19:01:23.658Z,21.90
2023-01-21T19:04:27.080Z,21.96
2023-01-21T19:07:30.496Z,21.99
2023-01-21T19:10:33.734Z,21.87
2023-01-21T19:13:36.799Z,21.91
2023-01-21T19:16:44.748Z,21.83
2023-01-21T19:19:47.794Z,21.95
2023-01-21T19:22:52.599Z,21.94
2023-01-21T19:25:57.199Z,21.91
2023-01-21T19:29:04.288Z,21.93
2023-01-21T19:32:14.772Z,21.96
2023-01-21T19:35:18.942Z,21.96
2023-01-21T19:38:26.370Z,21.93
2023-01-21T19:41:30.955Z,22.01
2023-01-21T19:44:34.846Z,22.00
2023-01-21T19:47:43.270Z,22.01
2023-01-21T19:50:47.185Z,22.03
2023-01-21T19:53:50.432Z,22.06
2023-01-21T19:56:54.847Z,22.07
2023-01-21T20:00:03.616Z,22.01
2023-01-21T20:03:11.431Z,21.95
2023-01-21T20:06:16.679Z,21.97
2023-01-21T20:09:20.867Z,21.96
2023-01-21T20:12:24.538Z,21.95
2023-01-21T20:15:31.127Z,21.86
2023-01-21T20:18:44.110Z,21.98
2023-01-21T20:21:59.897Z,21.90
2023-01-21T20:25:06.704Z,21.90
2023-01-21T20:28:16.731Z,21.94
2023-01-21T20:31:23.137Z,21.88
2023-01-21T20:34:31.571Z,21.93
2023-01-21T20:37:35.617Z,21.95
2023-01-21T20:40:38.742Z,21.96
2023-01-21T20:43:44.428Z,21.97
2023-01-21T20:46:49.980Z,21.96
2023-01-21T20:49:54.462Z,21.97
2023-01-21T20:52:58.289Z,21.99
2023-01-21T20:56:16.906Z,21.98
2023-01-21T20:59:23.757Z,21.96
2023-01-21T21:02:26.867Z,21.99
2023-01-21T21:05:31.463Z,21.99
2023-01-21T21:08:34.542Z,21.99
2023-01-21T21:11:37.588Z,21.99
2023-01-21T21:14:40.675Z,21.97
2023-01-21T21:17:44.946Z,22.03
2023-01-21T21:20:49.386Z,21.86
2023-01-21T21:23:53.118Z,21.83
2023-01-21T21:26:58.756Z,21.85
2023-01-21T21:30:01.930Z,21.88
2023-01-21T21:33:05.534Z,21.94
2023-01-21T21:36:14.608Z,21.93
2023-01-21T21:39:19.428Z,21.96
2023-01-21T21:42:39.881Z,21.98
2023-01-21T21:46:03.777Z,21.99
2023-01-21T21:49:05.821Z,21.98
2023-01-21T21:52:11.045Z,22.01
2023-01-21T21:55:15.601Z,22.03
2023-01-21T21:58:18.740Z,22.03
2023-01-21T22:01:24.557Z,22.05
2023-01-21T22:04:27.633Z,22.02
2023-01-21T22:07:32.012Z,22.02
2023-01-21T22:10:35.118Z,21.99
2023-01-21T22:13:40.322Z,22.02
2023-01-21T22:16:43.684Z,22.04
2023-01-21T22:19:46.690Z,22.08
2023-01-21T22:22:51.113Z,22.08
2023-01-21T22:25:56.188Z,22.05
2023-01-21T22:28:59.298Z,22.07
2023-01-21T22:32:06.269Z,22.07
2023-01-21T22:35:11.835Z,22.08
2023-01-21T22:38:16.339Z,22.01
2023-01-21T22:41:23.194Z,21.85
2023-01-21T22:44:26.180Z,21.95
2023-01-21T22:47:32.063Z,21.96
2023-01-21T22:50:42.163Z,21.99
2023-01-21T22:53:46.773Z,21.97
2023-01-21T22:56:52.507Z,21.97
2023-01-21T22:59:56.008Z,21.94
2023-01-21T23:02:59.906Z,21.94
2023-01-21T23:06:07.150Z,21.89
2023-01-21T23:09:16.154Z,21.83
2023-01-21T23:12:19.817Z,21.67
2023-01-21T23:15:23.747Z,21.95
2023-01-21T23:18:29.774Z,21.91
2023-01-21T23:21:32.721Z,21.87
2023-01-21T23:24:37.139Z,21.81
2023-01-21T23:27:40.351Z,21.79
2023-01-21T23:30:43.943Z,21.77
2023-01-21T23:33:53.025Z,21.74
2023-01-21T23:36:56.022Z,21.73
2023-01-21T23:40:00.518Z,21.72
2023-01-21T23:43:04.675Z,21.69
2023-01-21T23:46:08.918Z,21.69
2023-01-21T23:49:13.076Z,21.66
2023-01-21T23:52:16.155Z,21.67
2023-01-21T23:55:20.500Z,21.66
2023-01-21T23:58:23.493Z,21.66
